createdAt,value
2023-02-11T00:00:24.232Z,101917.56
2023-02-11T00:03:26.402Z,101920.91
2023-02-11T00:06:29.821Z,101924.22
2023-02-11T00:09:31.983Z,101926.34
2023-02-11T00:12:35.169Z,101919.78
2023-02-11T00:15:37.188Z,101924.19
2023-02-11T00:18:38.781Z,101923.47
2023-02-11T00:21:40.430Z,101928.91
2023-02-11T00:24:41.848Z,101929.06
2023-02-11T00:27:43.291Z,101934.59
2023-02-11T00:30:44.929Z,101938.91
2023-02-11T00:33:46.802Z,101939.84
2023-02-11T00:36:49.433Z,101943.34
2023-02-11T00:39:50.928Z,101941.84
2023-02-11T00:42:52.422Z,101939.38
2023-02-11T00:45:53.968Z,101942.66
2023-02-11T00:48:57.700Z,101935.00
2023-02-11T00:51:59.209Z,101928.38
2023-02-11T00:55:00.689Z,101930.69
2023-02-11T00:58:02.376Z,101922.19
2023-02-11T01:01:04.561Z,101926.69
2023-02-11T01:04:06.064Z,101928.97
2023-02-11T01:07:07.608Z,101928.84
2023-02-11T01:10:09.393Z,101925.84
2023-02-11T01:13:10.952Z,101924.66
2023-02-11T01:16:13.396Z,101920.53
2023-02-11T01:19:15.018Z,101911.09
2023-02-11T01:22:19.303Z,101915.09
2023-02-11T01:25:22.043Z,101912.50
2023-02-11T01:28:26.329Z,101916.03
2023-02-11T01:31:28.071Z,101906.84
2023-02-11T01:34:29.678Z,101903.53
2023-02-11T01:37:33.622Z,101907.53
2023-02-11T01:40:35.062Z,101905.69
2023-02-11T01:43:42.758Z,101900.72
2023-02-11T01:46:44.446Z,101901.94
2023-02-11T01:49:50.818Z,101907.69
2023-02-11T01:52:52.274Z,101895.59
2023-02-11T01:56:13.993Z,101884.78
2023-02-11T01:59:22.442Z,101884.06
2023-02-11T02:02:32.946Z,101883.97
2023-02-11T02:05:45.287Z,101882.94
2023-02-11T02:08:57.424Z,101872.97
2023-02-11T02:11:59.017Z,101864.69
2023-02-11T02:15:22.390Z,101856.69
2023-02-11T02:18:36.079Z,101860.59
2023-02-11T02:21:52.772Z,101846.09
2023-02-11T02:25:00.999Z,101849.78
2023-02-11T02:28:05.547Z,101844.56
2023-02-11T02:31:25.644Z,101838.00
2023-02-11T02:34:36.448Z,101835.78
2023-02-11T02:37:46.453Z,101833.13
2023-02-11T02:41:00.134Z,101840.88
2023-02-11T02:44:02.376Z,101842.66
2023-02-11T02:47:04.001Z,101835.09
2023-02-11T02:50:08.341Z,101824.88
2023-02-11T02:53:31.184Z,101832.41
2023-02-11T02:56:50.348Z,101824.69
2023-02-11T02:59:58.009Z,101833.34
2023-02-11T03:03:26.192Z,101838.47
2023-02-11T03:06:39.740Z,101831.06
2023-02-11T03:10:23.429Z,101830.88
2023-02-11T03:13:31.982Z,101835.06
2023-02-11T03:16:39.077Z,101835.00
2023-02-11T03:19:46.338Z,101831.59
2023-02-11T03:23:16.918Z,101835.81
2023-02-11T03:26:22.776Z,101823.03
2023-02-11T03:29:39.373Z,101833.00
2023-02-11T03:32:49.259Z,101829.63
2023-02-11T03:35:55.965Z,101831.47
2023-02-11T03:39:00.367Z,101833.41
2023-02-11T03:42:03.999Z,101825.91
2023-02-11T03:45:12.914Z,101828.59
2023-02-11T03:48:22.413Z,101828.50
2023-02-11T03:51:25.376Z,101837.75
2023-02-11T03:54:31.264Z,101834.25
2023-02-11T03:57:34.604Z,101845.84
2023-02-11T04:00:39.775Z,101838.25
2023-02-11T04:03:41.319Z,101845.75
2023-02-11T04:06:43.440Z,101842.28
2023-02-11T04:09:44.884Z,101854.94
2023-02-11T04:12:46.384Z,101837.13
2023-02-11T04:15:48.954Z,101819.25
2023-02-11T04:18:50.673Z,101815.75
2023-02-11T04:21:52.129Z,101823.75
2023-02-11T04:24:53.591Z,101814.38
2023-02-11T04:27:55.093Z,101818.31
2023-02-11T04:30:57.210Z,101818.28
2023-02-11T04:33:58.761Z,101813.78
2023-02-11T04:37:00.221Z,101819.97
2023-02-11T04:40:01.910Z,101825.91
2023-02-11T04:43:03.414Z,101836.84
2023-02-11T04:46:05.052Z,101839.41
2023-02-11T04:49:06.532Z,101846.22
2023-02-11T04:52:08.669Z,101850.53
2023-02-11T04:55:10.211Z,101861.63
2023-02-11T04:58:11.670Z,101856.47
2023-02-11T05:01:15.271Z,101853.72
2023-02-11T05:04:17.372Z,101846.06
2023-02-11T05:07:18.888Z,101840.25
2023-02-11T05:10:20.382Z,101817.38
2023-02-11T05:13:22.113Z,101823.06
2023-02-11T05:16:23.765Z,101810.38
2023-02-11T05:19:25.244Z,101812.88
2023-02-11T05:22:26.716Z,101810.97
2023-02-11T05:25:28.203Z,101825.47
2023-02-11T05:28:30.051Z,101815.09
2023-02-11T05:31:32.705Z,101813.34
2023-02-11T05:34:34.330Z,101818.19
2023-02-11T05:37:35.856Z,101807.13
2023-02-11T05:40:37.415Z,101798.47
2023-02-11T05:43:38.927Z,101789.94
2023-02-11T05:46:40.462Z,101785.38
2023-02-11T05:49:41.966Z,101783.13
2023-02-11T05:52:43.462Z,101784.81
2023-02-11T05:55:45.073Z,101778.75
2023-02-11T05:58:46.655Z,101783.84
2023-02-11T06:01:48.246Z,101784.34
2023-02-11T06:04:49.689Z,101772.75
2023-02-11T06:07:51.329Z,101780.78
2023-02-11T06:10:52.767Z,101784.22
2023-02-11T06:13:54.238Z,101786.38
2023-02-11T06:16:55.696Z,101779.28
2023-02-11T06:19:57.473Z,101769.47
2023-02-11T06:22:58.944Z,101754.78
2023-02-11T06:26:05.791Z,101750.19
2023-02-11T06:29:07.555Z,101735.78
2023-02-11T06:32:23.323Z,101749.41
2023-02-11T06:35:31.088Z,101756.25
2023-02-11T06:38:32.544Z,101771.91
2023-02-11T06:41:34.523Z,101763.75
2023-02-11T06:44:36.065Z,101783.50
2023-02-11T06:47:38.237Z,101795.94
2023-02-11T06:50:39.739Z,101799.16
2023-02-11T06:53:43.971Z,101814.66
2023-02-11T06:56:45.429Z,101831.19
2023-02-11T06:59:47.203Z,101822.53
2023-02-11T07:02:48.736Z,101822.41
2023-02-11T07:05:50.481Z,101818.84
2023-02-11T07:08:52.089Z,101824.75
2023-02-11T07:11:53.572Z,101831.09
2023-02-11T07:14:56.656Z,101811.16
2023-02-11T07:17:58.334Z,101808.94
2023-02-11T07:21:00.048Z,101821.97
2023-02-11T07:24:01.942Z,101815.31
2023-02-11T07:27:03.477Z,101811.94
2023-02-11T07:30:07.401Z,101814.59
2023-02-11T07:33:09.039Z,101826.56
2023-02-11T07:36:11.341Z,101817.69
2023-02-11T07:39:12.830Z,101831.50
2023-02-11T07:42:14.365Z,101831.38
2023-02-11T07:45:16.460Z,101821.84
2023-02-11T07:48:17.897Z,101816.34
2023-02-11T07:51:22.649Z,101814.63
2023-02-11T07:54:24.133Z,101830.34
2023-02-11T07:57:26.054Z,101826.31
2023-02-11T08:00:27.731Z,101822.69
2023-02-11T08:03:29.636Z,101820.78
2023-02-11T08:06:34.850Z,101829.47
2023-02-11T08:09:36.482Z,101826.03
2023-02-11T08:12:37.914Z,101834.03
2023-02-11T08:15:39.348Z,101837.97
2023-02-11T08:18:40.912Z,101852.38
2023-02-11T08:21:43.212Z,101838.44
2023-02-11T08:24:44.750Z,101836.97
2023-02-11T08:27:46.278Z,101846.31
2023-02-11T08:30:47.780Z,101849.22
2023-02-11T08:33:49.985Z,101852.38
2023-02-11T08:36:51.437Z,101850.88
2023-02-11T08:39:52.905Z,101852.56
2023-02-11T08:42:54.412Z,101859.53
2023-02-11T08:46:26.705Z,101862.69
2023-02-11T08:49:31.484Z,101859.81
2023-02-11T08:52:32.858Z,101865.94
2023-02-11T08:55:34.513Z,101865.81
2023-02-11T08:58:36.197Z,101860.03
2023-02-11T09:01:37.754Z,101859.13
2023-02-11T09:04:40.048Z,101860.97
2023-02-11T09:07:41.476Z,101868.03
2023-02-11T09:10:43.275Z,101865.44
2023-02-11T09:13:46.068Z,101863.72
2023-02-11T09:16:48.565Z,101867.59
2023-02-11T09:19:50.216Z,101859.50
2023-02-11T09:22:51.950Z,101858.25
2023-02-11T09:25:53.553Z,101864.16
2023-02-11T09:28:56.497Z,101862.63
2023-02-11T09:31:58.280Z,101859.16
2023-02-11T09:34:59.839Z,101848.41
2023-02-11T09:38:01.643Z,101853.69
2023-02-11T09:41:07.747Z,101849.50
2023-02-11T09:44:18.608Z,101840.94
2023-02-11T09:47:28.184Z,101839.25
2023-02-11T09:50:36.127Z,101840.41
2023-02-11T09:53:42.286Z,101840.72
2023-02-11T09:56:43.852Z,101841.09
2023-02-11T09:59:45.429Z,101844.97
2023-02-11T10:03:08.734Z,101841.09
2023-02-11T10:06:16.461Z,101845.47
2023-02-11T10:09:30.540Z,101846.84
2023-02-11T10:12:56.190Z,101847.41
2023-02-11T10:16:03.722Z,101843.75
2023-02-11T10:19:39.011Z,101846.00
2023-02-11T10:23:01.549Z,101857.03
2023-02-11T10:26:03.546Z,101862.03
2023-02-11T10:29:18.412Z,101854.75
2023-02-11T10:32:35.159Z,101848.50
2023-02-11T10:35:37.873Z,101859.19
2023-02-11T10:38:39.940Z,101853.59
2023-02-11T10:41:46.426Z,101851.91
2023-02-11T10:45:04.501Z,101859.63
2023-02-11T10:48:40.209Z,101846.94
2023-02-11T10:51:41.751Z,101842.75
2023-02-11T10:55:01.995Z,101842.63
2023-02-11T10:58:04.828Z,101825.91
2023-02-11T11:01:23.247Z,101825.88
2023-02-11T11:04:42.493Z,101820.13
2023-02-11T11:07:56.503Z,101817.19
2023-02-11T11:11:10.031Z,101808.75
2023-02-11T11:14:19.331Z,101803.13
2023-02-11T11:17:21.105Z,101783.09
2023-02-11T11:20:28.354Z,101774.03
2023-02-11T11:23:31.186Z,101770.78
2023-02-11T11:26:43.119Z,101773.59
2023-02-11T11:29:54.788Z,101763.09
2023-02-11T11:32:56.545Z,101754.31
2023-02-11T11:36:03.344Z,101755.00
2023-02-11T11:39:20.474Z,101761.66
2023-02-11T11:42:24.680Z,101759.06
2023-02-11T11:45:27.259Z,101760.97
2023-02-11T11:48:35.037Z,101765.25
2023-02-11T11:51:41.267Z,101754.94
2023-02-11T11:54:47.780Z,101748.97
2023-02-11T11:57:51.021Z,101744.34
2023-02-11T12:00:58.457Z,101734.78
2023-02-11T12:04:12.248Z,101728.22
2023-02-11T12:07:35.308Z,101737.13
2023-02-11T12:10:44.384Z,101739.94
2023-02-11T12:14:08.338Z,101736.56
2023-02-11T12:17:43.886Z,101742.34
2023-02-11T12:21:04.068Z,101730.00
2023-02-11T12:24:32.785Z,101735.72
2023-02-11T12:27:40.218Z,101733.75
2023-02-11T12:30:51.312Z,101733.34
2023-02-11T12:34:07.464Z,101733.06
2023-02-11T12:37:27.116Z,101732.94
2023-02-11T12:40:59.833Z,101736.31
2023-02-11T12:44:01.343Z,101732.84
2023-02-11T12:47:30.434Z,101737.41
2023-02-11T12:50:57.447Z,101736.84
2023-02-11T12:54:06.839Z,101730.03
2023-02-11T12:57:31.762Z,101728.56
2023-02-11T13:00:45.985Z,101724.66
2023-02-11T13:03:54.726Z,101713.84
2023-02-11T13:07:02.219Z,101711.66
2023-02-11T13:10:36.557Z,101708.81
2023-02-11T13:13:47.096Z,101711.63
2023-02-11T13:16:50.909Z,101708.28
2023-02-11T13:19:58.714Z,101702.72
2023-02-11T13:23:23.653Z,101705.75
2023-02-11T13:26:33.651Z,101692.81
2023-02-11T13:30:11.274Z,101688.44
2023-02-11T13:33:18.227Z,101686.47
2023-02-11T13:36:25.556Z,101679.97
2023-02-11T13:39:27.134Z,101677.25
2023-02-11T13:42:31.171Z,101676.91
2023-02-11T13:45:47.942Z,101669.25
2023-02-11T13:48:53.018Z,101671.19
2023-02-11T13:51:55.523Z,101677.16
2023-02-11T13:55:03.330Z,101666.97
2023-02-11T13:58:07.487Z,101671.50
2023-02-11T14:01:09.013Z,101670.91
2023-02-11T14:04:44.159Z,101674.53
2023-02-11T14:08:31.506Z,101667.72
2023-02-11T14:11:33.203Z,101675.34
2023-02-11T14:15:08.057Z,101675.34
2023-02-11T14:18:44.348Z,101679.41
2023-02-11T14:21:46.737Z,101677.84
2023-02-11T14:24:51.092Z,101678.66
2023-02-11T14:27:56.709Z,101670.31
2023-02-11T14:31:13.034Z,101670.75
2023-02-11T14:34:35.397Z,101663.13
2023-02-11T14:37:59.194Z,101661.56
2023-02-11T14:41:10.484Z,101652.47
2023-02-11T14:44:21.562Z,101656.47
2023-02-11T14:47:37.028Z,101649.97
2023-02-11T14:50:46.198Z,101654.44
2023-02-11T14:53:51.100Z,101658.59
2023-02-11T14:57:11.885Z,101652.84
2023-02-11T15:00:21.537Z,101647.94
2023-02-11T15:03:41.156Z,101645.50
2023-02-11T15:06:47.136Z,101646.66
2023-02-11T15:09:52.421Z,101644.13
2023-02-11T15:12:54.792Z,101645.13
2023-02-11T15:15:58.656Z,101647.00
2023-02-11T15:19:05.526Z,101652.09
2023-02-11T15:22:22.205Z,101650.25
2023-02-11T15:25:24.131Z,101659.78
2023-02-11T15:28:28.966Z,101655.25
2023-02-11T15:31:33.822Z,101661.75
2023-02-11T15:34:37.161Z,101662.59
2023-02-11T15:37:39.872Z,101667.66
2023-02-11T15:40:52.664Z,101661.50
2023-02-11T15:43:54.501Z,101659.97
2023-02-11T15:46:56.287Z,101660.25
2023-02-11T15:49:58.052Z,101665.63
2023-02-11T15:53:02.638Z,101662.78
2023-02-11T15:56:17.502Z,101669.06
2023-02-11T15:59:30.524Z,101668.00
2023-02-11T16:02:35.013Z,101672.44
2023-02-11T16:05:37.984Z,101676.06
2023-02-11T16:08:41.537Z,101676.41
2023-02-11T16:11:45.749Z,101677.28
2023-02-11T16:14:47.194Z,101676.97
2023-02-11T16:17:48.797Z,101684.13
2023-02-11T16:20:50.897Z,101679.31
2023-02-11T16:23:57.189Z,101681.56
2023-02-11T16:27:01.295Z,101686.25
2023-02-11T16:30:02.781Z,101683.22
2023-02-11T16:33:05.488Z,101693.88
2023-02-11T16:36:19.488Z,101698.59
2023-02-11T16:39:22.453Z,101700.63
2023-02-11T16:42:24.926Z,101705.84
2023-02-11T16:45:26.845Z,101705.47
2023-02-11T16:48:28.347Z,101707.59
2023-02-11T16:51:29.963Z,101707.19
2023-02-11T16:54:31.612Z,101712.06
2023-02-11T16:57:33.172Z,101712.63
2023-02-11T17:00:36.225Z,101715.56
2023-02-11T17:03:40.452Z,101726.75
2023-02-11T17:06:42.009Z,101730.69
2023-02-11T17:09:43.597Z,101730.31
2023-02-11T17:12:45.359Z,101735.31
2023-02-11T17:15:46.909Z,101725.91
2023-02-11T17:18:49.133Z,101732.09
2023-02-11T17:21:52.761Z,101741.09
2023-02-11T17:24:59.709Z,101739.09
2023-02-11T17:28:01.262Z,101737.22
2023-02-11T17:31:08.292Z,101733.25
2023-02-11T17:34:09.882Z,101734.34
2023-02-11T17:37:11.619Z,101735.66
2023-02-11T17:40:17.113Z,101733.44
2023-02-11T17:43:18.586Z,101730.31
2023-02-11T17:46:20.206Z,101731.22
2023-02-11T17:49:21.769Z,101736.72
2023-02-11T17:52:28.053Z,101736.88
2023-02-11T17:55:33.239Z,101733.81
2023-02-11T17:58:35.152Z,101734.81
2023-02-11T18:01:38.220Z,101735.84
2023-02-11T18:04:43.258Z,101734.84
2023-02-11T18:07:52.625Z,101738.91
2023-02-11T18:10:54.083Z,101741.75
2023-02-11T18:13:56.304Z,101746.16
2023-02-11T18:16:57.968Z,101740.81
2023-02-11T18:19:59.470Z,101740.34
2023-02-11T18:23:01.087Z,101751.59
2023-02-11T18:26:03.177Z,101752.53
2023-02-11T18:29:06.166Z,101746.13
2023-02-11T18:32:07.894Z,101758.09
2023-02-11T18:35:14.799Z,101753.88
2023-02-11T18:38:16.497Z,101758.94
2023-02-11T18:41:17.957Z,101762.19
2023-02-11T18:44:22.267Z,101766.06
2023-02-11T18:47:23.844Z,101759.56
2023-02-11T18:50:25.348Z,101765.06
2023-02-11T18:53:26.908Z,101766.00
2023-02-11T18:56:28.871Z,101772.59
2023-02-11T18:59:30.437Z,101771.94
2023-02-11T19:02:31.964Z,101777.75
2023-02-11T19:05:43.609Z,101779.59
2023-02-11T19:08:45.702Z,101771.63
2023-02-11T19:11:47.422Z,101779.22
2023-02-11T19:14:48.960Z,101768.81
2023-02-11T19:17:50.409Z,101781.75
2023-02-11T19:20:51.928Z,101792.34
2023-02-11T19:23:53.371Z,101784.81
2023-02-11T19:27:00.435Z,101788.38
2023-02-11T19:30:02.013Z,101796.34
2023-02-11T19:33:03.547Z,101789.91
2023-02-11T19:36:06.718Z,101787.47
2023-02-11T19:39:08.589Z,101784.28
2023-02-11T19:42:10.666Z,101782.66
2023-02-11T19:45:12.166Z,101779.75
2023-02-11T19:48:13.649Z,101776.94
2023-02-11T19:51:15.816Z,101788.47
2023-02-11T19:54:17.407Z,101788.72
2023-02-11T19:57:18.894Z,101792.28
2023-02-11T20:00:20.870Z,101778.38
2023-02-11T20:03:22.358Z,101771.47
2023-02-11T20:06:29.712Z,101769.97
2023-02-11T20:09:31.766Z,101774.00
2023-02-11T20:12:33.204Z,101773.28
2023-02-11T20:15:34.657Z,101771.31
2023-02-11T20:18:36.680Z,101776.84
2023-02-11T20:21:38.487Z,101766.53
2023-02-11T20:24:40.042Z,101768.69
2023-02-11T20:27:41.735Z,101768.44
2023-02-11T20:30:43.289Z,101762.00
2023-02-11T20:33:45.431Z,101763.41
2023-02-11T20:36:53.074Z,101763.59
2023-02-11T20:39:54.646Z,101768.09
2023-02-11T20:42:56.666Z,101757.97
2023-02-11T20:46:05.397Z,101769.22
2023-02-11T20:49:08.648Z,101774.47
2023-02-11T20:52:10.176Z,101779.13
2023-02-11T20:55:11.953Z,101774.75
2023-02-11T20:58:13.394Z,101778.22
2023-02-11T21:01:21.596Z,101783.78
2023-02-11T21:04:29.619Z,101778.81
2023-02-11T21:07:31.373Z,101783.06
2023-02-11T21:10:32.898Z,101785.25
2023-02-11T21:13:36.101Z,101787.22
2023-02-11T21:16:38.214Z,101794.84
2023-02-11T21:19:41.346Z,101785.16
2023-02-11T21:22:43.220Z,101790.31
2023-02-11T21:25:44.748Z,101783.78
2023-02-11T21:28:46.266Z,101794.03
2023-02-11T21:31:48.946Z,101792.97
2023-02-11T21:34:50.503Z,101807.56
2023-02-11T21:37:52.227Z,101799.75
2023-02-11T21:40:53.752Z,101808.81
2023-02-11T21:43:55.237Z,101805.84
2023-02-11T21:46:56.774Z,101789.84
2023-02-11T21:49:58.423Z,101793.03
2023-02-11T21:52:59.911Z,101798.59
2023-02-11T21:56:09.373Z,101802.00
2023-02-11T21:59:13.895Z,101799.34
2023-02-11T22:02:15.346Z,101801.84
2023-02-11T22:05:16.895Z,101803.28
2023-02-11T22:08:20.252Z,101812.41
2023-02-11T22:11:22.818Z,101806.50
2023-02-11T22:14:24.308Z,101800.72
2023-02-11T22:17:25.961Z,101798.16
2023-02-11T22:20:27.468Z,101790.31
2023-02-11T22:23:29.937Z,101808.09
2023-02-11T22:26:31.287Z,101803.31
2023-02-11T22:29:33.017Z,101803.31
2023-02-11T22:32:34.555Z,101810.56
2023-02-11T22:35:36.058Z,101825.22
2023-02-11T22:38:37.578Z,101822.13
2023-02-11T22:41:40.487Z,101816.06
2023-02-11T22:44:41.919Z,101812.69
2023-02-11T22:47:43.375Z,101810.00
2023-02-11T22:50:44.861Z,101799.50
2023-02-11T22:53:55.326Z,101793.44
2023-02-11T22:56:56.847Z,101804.34
2023-02-11T22:59:58.370Z,101814.03
2023-02-11T23:02:59.905Z,101817.13
2023-02-11T23:06:01.545Z,101820.34
2023-02-11T23:09:09.019Z,101814.25
2023-02-11T23:12:10.562Z,101813.66
2023-02-11T23:15:12.048Z,101819.56
2023-02-11T23:18:14.080Z,101822.94
2023-02-11T23:21:22.510Z,101827.13
2023-02-11T23:24:23.970Z,101827.78
2023-02-11T23:27:25.479Z,101827.59
2023-02-11T23:30:28.261Z,101839.53
2023-02-11T23:33:29.909Z,101836.94
2023-02-11T23:36:32.339Z,101829.91
2023-02-11T23:39:33.896Z,101831.44
2023-02-11T23:42:38.642Z,101834.81
2023-02-11T23:45:40.210Z,101829.88
2023-02-11T23:48:41.671Z,101824.91
2023-02-11T23:51:43.384Z,101824.03
2023-02-11T23:54:45.541Z,101814.75
2023-02-11T23:57:47.010Z,101824.38
